createdAt,value
2022-11-09T11:06:59.205Z,14.9
2022-11-09T11:16:27.861Z,14.8
2022-11-09T11:16:49.782Z,14.8
2022-11-09T11:26:38.466Z,14.8
2022-11-09T11:36:40.619Z,14.9
2022-11-09T11:56:44.185Z,15.3
2022-11-09T12:06:46.029Z,15
2022-11-09T12:27:04.943Z,14.7
2022-11-09T12:36:52.156Z,15
2022-11-09T12:46:54.414Z,14.9
2022-11-09T12:56:56.548Z,14.9
2022-11-09T13:27:02.520Z,14.6
2022-11-09T13:37:04.516Z,14.6
2022-11-09T13:57:08.270Z,14.7
2022-11-09T14:07:10.513Z,14.6
2022-11-09T14:17:12.683Z,14.5
2022-11-09T14:27:15.064Z,14.4
2022-11-09T14:37:17.195Z,14.3
2022-11-09T14:47:19.080Z,14.2
2022-11-09T14:57:21.328Z,13.9
2022-11-09T15:07:23.359Z,13.8
2022-11-09T15:17:25.051Z,13.7
2022-11-09T15:27:27.286Z,13.6
2022-11-09T15:37:29.710Z,13.4
2022-11-09T15:47:31.777Z,13.5
2022-11-09T15:57:34.056Z,13.4
2022-11-09T16:07:36.021Z,13.2
2022-11-09T16:17:37.675Z,13.1
2022-11-09T16:27:50.447Z,12.9
2022-11-09T16:37:42.005Z,12.7
2022-11-09T16:57:46.623Z,12.6
2022-11-09T17:07:48.974Z,12.4
2022-11-09T17:17:51.365Z,12.4
2022-11-09T17:27:53.561Z,12.2
2022-11-09T17:58:00.429Z,12.3
2022-11-09T18:08:02.142Z,12.1
2022-11-09T18:18:03.908Z,12.1
2022-11-09T19:18:15.465Z,11.8
2022-11-09T20:28:30.291Z,11.4
2022-11-09T21:08:38.429Z,11.1
2022-11-09T21:18:40.954Z,10.9
2022-11-09T21:28:43.597Z,10.9
2022-11-09T21:38:45.437Z,10.7
2022-11-09T21:48:47.968Z,10.7
2022-11-09T21:58:50.430Z,10.5
2022-11-09T22:49:00.979Z,10.1
2022-11-09T23:09:04.495Z,10
